Terminal Aerodrome Forecast
Issued by NWS

Home | Current Version | Previous Version | Text Only | Print | Product List | Glossary On
Versions: 1 2 3 4 5 6 7 8 9 10 11
702
FTUS45 KRIW 232320
TAFCPR
TAF
KCPR 232320Z 2400/2424 25013G21KT P6SM VCTS SCT070CB BKN100
     FM240400 26012KT P6SM VCSH SCT050 BKN070
     FM241000 24009KT P6SM SCT050
     FM241600 27012G17KT P6SM FEW070
     FM242200 26014G22KT P6SM VCTS BKN050CB=

USA.gov is the U.S. government's official web portal to all federal, state and local government web resources and services.